KDMA/DMA METAR and TAF weather

Enter ICAO airport designator
Station Type Date Time Source
KDMA METAR 2018/12/12 22:58 UTC NOAA

KDMA 122258Z AUTO 30009KT 10SM CLR 19/03 A3001 RMK AO2 SLP144 T01890027 $


Station Type Date Time Source
KDMA Decoded METAR 2018/12/12 22:58 UTC NOAA

Davis-Monthan Air Force Base, AZ, United States (KDMA) 32-10N 110-53W
Dec 12, 2018 - 05:58 PM EST / 2018.12.12 2258 UTC
Wind: from the WNW (300 degrees) at 10 MPH (9 KT):0
Visibility: 10 mile(s):0
Sky conditions: clear
Temperature: 66.0 F (18.9 C)
Dew Point: 36.9 F (2.7 C)
Relative Humidity: 33%
Pressure (altimeter): 30.01 in. Hg (1016 hPa)
ob: KDMA 122258Z AUTO 30009KT 10SM CLR 19/03 A3001 RMK AO2 SLP144 T01890027
cycle: 23

Station Type Date Time Source
KDMA TAF 2018/12/12 22:09 UTC NOAA

TAF TAF KDMA 122205Z 1222/1404 31009KT 9999 FEW180 QNH2999INS
BECMG 1302/1303 VRB06KT 9999 SKC QNH3007INS
BECMG 1308/1309 12009KT 9999 SKC QNH3012INS
BECMG 1317/1318 33009KT 9999 FEW200 QNH3017INS TX20/1222Z TN03/1315Z


Example: see airport list